Terminal Aerodrome Forecast
Issued by NWS

Home | Current Version | Previous Version | Text Only | Print | Product List | Glossary On
Versions: 1 2 3 4 5 6 7 8 9 10 11 12 13
000
FTUS43 KGRB 260520
TAFATW
TAF
KATW 260520Z 2606/2706 22005KT P6SM FEW200
     FM261400 23007KT P6SM SCT200
     FM262100 24007KT P6SM SCT050 BKN150
     FM270000 33010KT P6SM BKN050 OVC150 PROB30 2701/2706 6SM -SHRA
      BKN025=

USA.gov is the U.S. government's official web portal to all federal, state and local government web resources and services.